Time;durP1;ratioP1;P1;durP2;ratioP2;P2;SDS_P1;SDS_P2;PMS_P1;PMS_P2;Temp;Humidity;BMP_temperature;BMP_pressure;BME280_temperature;BME280_humidity;BME280_pressure;Samples;Min_cycle;Max_cycle;Signal;HPM_P1;HPM_P2
2024/02/15 00:01:15;;;;;;;19.53;17.50;;;12.30;99.90;;;;;;5177489;27;20435;-76
2024/02/15 00:03:43;;;;;;;18.40;16.50;;;12.30;99.90;;;;;;5158988;27;20464;-78
2024/02/15 00:06:13;;;;;;;20.17;18.17;;;12.30;99.90;;;;;;5159550;27;20460;-77
2024/02/15 00:08:42;;;;;;;20.40;18.30;;;12.30;99.90;;;;;;5162769;27;20440;-76
2024/02/15 00:11:10;;;;;;;20.97;18.77;;;12.30;99.90;;;;;;5177948;27;20429;-76
2024/02/15 00:13:38;;;;;;;20.97;18.87;;;12.30;99.90;;;;;;5158938;27;20463;-77
2024/02/15 00:16:07;;;;;;;20.17;18.13;;;12.30;99.90;;;;;;5158714;27;20469;-77
2024/02/15 00:18:35;;;;;;;21.30;19.00;;;12.30;99.90;;;;;;5177367;27;20784;-77
2024/02/15 00:21:04;;;;;;;21.60;18.93;;;12.30;99.90;;;;;;5158119;27;20463;-77
2024/02/15 00:23:35;;;;;;;21.47;19.20;;;12.30;99.90;;;;;;5158769;27;20512;-76
2024/02/15 00:26:03;;;;;;;23.00;19.30;;;12.30;99.90;;;;;;5158407;27;20826;-78
2024/02/15 00:28:34;;;;;;;21.20;18.53;;;12.30;99.90;;;;;;5159373;27;20965;-78
2024/02/15 00:31:02;;;;;;;22.93;20.03;;;12.30;99.90;;;;;;5158791;27;20432;-78
2024/02/15 00:33:31;;;;;;;24.30;20.30;;;12.30;99.90;;;;;;5158190;27;20464;-76
2024/02/15 00:35:59;;;;;;;23.13;20.57;;;12.30;99.90;;;;;;5158251;27;20471;-76
2024/02/15 00:38:28;;;;;;;23.80;21.17;;;12.30;99.90;;;;;;5159155;27;20447;-76
2024/02/15 00:40:58;;;;;;;27.60;20.50;;;12.30;99.90;;;;;;5158453;27;20870;-75
2024/02/15 00:43:27;;;;;;;22.67;19.40;;;12.30;99.90;;;;;;5177268;27;20417;-77
2024/02/15 00:45:56;;;;;;;26.60;21.80;;;12.30;99.90;;;;;;5157903;27;20504;-76
2024/02/15 00:48:28;;;;;;;24.77;21.57;;;12.30;99.90;;;;;;5157859;27;20449;-76
2024/02/15 00:50:56;;;;;;;26.40;20.70;;;12.30;99.90;;;;;;5176912;27;20774;-75
2024/02/15 00:53:25;;;;;;;21.87;18.97;;;12.30;99.90;;;;;;5158365;27;20471;-76
2024/02/15 00:55:53;;;;;;;23.10;19.23;;;12.30;99.90;;;;;;5158011;27;20453;-77
2024/02/15 00:58:24;;;;;;;23.27;20.03;;;12.40;99.90;;;;;;5157988;27;21024;-76
2024/02/15 01:00:52;;;;;;;23.20;19.07;;;12.40;99.90;;;;;;5158217;27;20493;-77
2024/02/15 01:03:20;;;;;;;23.03;20.40;;;12.40;99.90;;;;;;5176963;27;20421;-76
2024/02/15 01:05:49;;;;;;;25.00;21.20;;;12.40;99.90;;;;;;5176484;27;20452;-76
2024/02/15 01:08:17;;;;;;;23.93;20.30;;;12.40;99.90;;;;;;5157851;27;20441;-77
2024/02/15 01:10:46;;;;;;;24.33;20.60;;;12.40;99.90;;;;;;5158032;27;20972;-77
2024/02/15 01:13:14;;;;;;;24.47;20.07;;;12.40;99.90;;;;;;5176663;27;20461;-76
2024/02/15 01:15:44;;;;;;;27.27;21.43;;;12.40;99.90;;;;;;5157762;27;20798;-75
2024/02/15 01:18:13;;;;;;;23.77;19.50;;;12.40;99.90;;;;;;5157499;27;20470;-76
2024/02/15 01:20:41;;;;;;;26.47;20.80;;;12.40;99.90;;;;;;5157498;27;20440;-75
2024/02/15 01:23:09;;;;;;;25.20;19.73;;;12.40;99.90;;;;;;5158930;27;20937;-78
2024/02/15 01:25:39;;;;;;;25.47;20.90;;;12.40;99.90;;;;;;5159402;27;20457;-77
2024/02/15 01:28:08;;;;;;;24.97;20.33;;;12.40;99.90;;;;;;5177895;27;20441;-77
2024/02/15 01:30:37;;;;;;;26.03;21.10;;;12.40;99.90;;;;;;5178782;27;20913;-78
2024/02/15 01:33:07;;;;;;;25.80;21.00;;;12.40;99.90;;;;;;5177789;27;20457;-77
2024/02/15 01:35:36;;;;;;;22.40;19.10;;;12.40;99.90;;;;;;5176404;27;20965;-76
2024/02/15 01:38:05;;;;;;;24.53;19.60;;;12.40;99.90;;;;;;5157622;27;20449;-78
2024/02/15 01:40:33;;;;;;;24.17;18.73;;;12.40;99.90;;;;;;5157267;27;20445;-77
2024/02/15 01:43:01;;;;;;;26.50;21.00;;;12.40;99.90;;;;;;5158052;27;20453;-76
2024/02/15 01:45:30;;;;;;;23.63;18.93;;;12.40;99.90;;;;;;5157658;27;20537;-77
2024/02/15 01:47:59;;;;;;;24.33;19.00;;;12.40;99.90;;;;;;5179316;27;20489;-77
2024/02/15 01:50:29;;;;;;;22.07;18.00;;;12.40;99.90;;;;;;5179567;27;20472;-78
2024/02/15 01:52:59;;;;;;;22.87;17.57;;;12.40;99.90;;;;;;5159174;27;20448;-76
2024/02/15 01:55:27;;;;;;;21.57;18.13;;;12.40;99.90;;;;;;5157042;27;20509;-76
2024/02/15 01:57:55;;;;;;;24.37;18.33;;;12.40;99.90;;;;;;5176538;27;20485;-77
2024/02/15 02:00:24;;;;;;;19.40;16.30;;;12.40;99.90;;;;;;5159709;27;20436;-77
2024/02/15 02:02:55;;;;;;;21.60;17.30;;;12.40;99.90;;;;;;5176286;27;20476;-77
2024/02/15 02:05:23;;;;;;;22.43;19.03;;;12.40;99.90;;;;;;5176409;27;20452;-78
2024/02/15 02:07:52;;;;;;;21.57;18.63;;;12.40;99.90;;;;;;5176717;27;20472;-78
2024/02/15 02:10:21;;;;;;;22.50;18.37;;;12.40;99.90;;;;;;5158866;27;20484;-78
2024/02/15 02:12:50;;;;;;;22.27;17.10;;;12.40;99.90;;;;;;5176292;27;20518;-77
2024/02/15 02:15:19;;;;;;;24.73;18.77;;;12.40;99.90;;;;;;5175678;27;20500;-76
2024/02/15 02:17:50;;;;;;;22.40;18.40;;;12.40;99.90;;;;;;5158862;27;20508;-77
2024/02/15 02:20:19;;;;;;;23.00;18.27;;;12.40;99.90;;;;;;5159169;27;20925;-76
2024/02/15 02:22:51;;;;;;;25.00;19.97;;;12.40;99.90;;;;;;5175970;27;20433;-77
2024/02/15 02:25:22;;;;;;;27.20;21.20;;;12.40;99.90;;;;;;5158253;27;20503;-78
2024/02/15 02:27:51;;;;;;;24.90;20.40;;;12.40;99.90;;;;;;5157000;27;20445;-77
2024/02/15 02:30:22;;;;;;;27.77;22.83;;;12.40;99.90;;;;;;5157133;27;20453;-76
2024/02/15 02:32:50;;;;;;;29.30;22.60;;;12.40;99.90;;;;;;5157613;27;20867;-78
2024/02/15 02:35:20;;;;;;;31.23;24.13;;;12.40;99.90;;;;;;5159443;27;20486;-78
2024/02/15 02:37:49;;;;;;;33.50;24.17;;;12.40;99.90;;;;;;5160856;27;20440;-78
2024/02/15 02:40:17;;;;;;;29.90;24.57;;;12.40;99.90;;;;;;5176347;27;20436;-76
2024/02/15 02:42:52;;;;;;;33.90;25.20;;;12.40;99.90;;;;;;5177006;27;20428;-76
2024/02/15 02:45:22;;;;;;;31.97;25.40;;;12.40;99.90;;;;;;5179665;27;20848;-77
2024/02/15 02:47:51;;;;;;;31.53;25.60;;;12.40;99.90;;;;;;5163054;27;20796;-78
2024/02/15 02:50:23;;;;;;;35.87;25.50;;;12.40;99.90;;;;;;5164632;27;20980;-78
2024/02/15 02:52:52;;;;;;;34.00;26.97;;;12.40;99.90;;;;;;5162311;27;20812;-78
2024/02/15 02:55:20;;;;;;;32.97;25.20;;;12.40;99.90;;;;;;5160439;27;20476;-76
2024/02/15 02:57:50;;;;;;;34.30;25.60;;;12.40;99.90;;;;;;5160331;27;20468;-78
2024/02/15 03:00:20;;;;;;;29.87;23.47;;;12.40;99.90;;;;;;5180245;27;20432;-76
2024/02/15 03:02:48;;;;;;;32.30;24.97;;;12.40;99.90;;;;;;5160079;27;20481;-77
2024/02/15 03:05:16;;;;;;;30.40;23.80;;;12.40;99.90;;;;;;5160342;27;20527;-78
2024/02/15 03:07:45;;;;;;;30.63;23.80;;;12.40;99.90;;;;;;5163173;27;20465;-77
2024/02/15 03:10:14;;;;;;;32.23;23.90;;;12.40;99.90;;;;;;5162567;27;20448;-76
2024/02/15 03:12:46;;;;;;;31.60;24.37;;;12.40;99.90;;;;;;5179717;27;20436;-76
2024/02/15 03:15:18;;;;;;;34.63;25.60;;;12.40;99.90;;;;;;5159674;27;20480;-76
2024/02/15 03:17:47;;;;;;;30.83;24.17;;;12.40;99.90;;;;;;5179956;27;20901;-78
2024/02/15 03:20:21;;;;;;;35.90;26.30;;;12.40;99.90;;;;;;5161803;27;20452;-78
2024/02/15 03:22:54;;;;;;;31.33;23.93;;;12.40;99.90;;;;;;5183716;27;20408;-78
2024/02/15 03:25:24;;;;;;;33.50;24.20;;;12.40;99.90;;;;;;5163486;27;20472;-77
2024/02/15 03:27:54;;;;;;;32.77;23.80;;;12.40;99.90;;;;;;5163157;27;20448;-78
2024/02/15 03:30:25;;;;;;;31.97;25.90;;;12.40;99.90;;;;;;5182194;27;20440;-78
2024/02/15 03:32:54;;;;;;;34.80;24.80;;;12.40;99.90;;;;;;5162191;27;20455;-77
2024/02/15 03:35:25;;;;;;;28.80;23.77;;;12.40;99.90;;;;;;5160595;27;20544;-75
2024/02/15 03:37:53;;;;;;;34.33;25.10;;;12.40;99.90;;;;;;5160628;27;20464;-78
2024/02/15 03:40:24;;;;;;;32.97;25.23;;;12.40;99.90;;;;;;5159824;27;20476;-77
2024/02/15 03:42:52;;;;;;;34.27;25.23;;;12.40;99.90;;;;;;5178239;27;20424;-76
2024/02/15 03:45:20;;;;;;;37.57;27.30;;;12.40;99.90;;;;;;5177950;27;20456;-76
2024/02/15 03:47:50;;;;;;;30.33;24.87;;;12.40;99.90;;;;;;5160025;27;20445;-78
2024/02/15 03:50:20;;;;;;;30.47;25.23;;;12.40;99.90;;;;;;5181639;27;20515;-78
2024/02/15 03:52:48;;;;;;;32.10;24.30;;;12.40;99.90;;;;;;5162919;27;20453;-78
2024/02/15 03:55:17;;;;;;;31.30;25.87;;;12.40;99.90;;;;;;5162641;27;20483;-78
2024/02/15 03:57:45;;;;;;;31.10;25.80;;;12.40;99.90;;;;;;5162254;27;20447;-76
2024/02/15 04:00:15;;;;;;;33.40;25.97;;;12.40;99.90;;;;;;5159842;27;20445;-77
2024/02/15 04:02:44;;;;;;;33.07;24.00;;;12.40;99.90;;;;;;5160229;27;20497;-77
2024/02/15 04:05:13;;;;;;;30.13;25.00;;;12.40;99.90;;;;;;5159012;27;21033;-76
2024/02/15 04:07:43;;;;;;;35.97;27.27;;;12.40;99.90;;;;;;5159603;27;20445;-77
2024/02/15 04:10:12;;;;;;;34.27;26.80;;;12.40;99.90;;;;;;5179702;27;20444;-77
2024/02/15 04:12:41;;;;;;;31.53;25.83;;;12.40;99.90;;;;;;5161816;27;21017;-78
2024/02/15 04:15:13;;;;;;;34.70;28.30;;;12.40;99.90;;;;;;5178633;27;20468;-77
2024/02/15 04:17:44;;;;;;;31.43;25.87;;;12.40;99.90;;;;;;5159516;27;20440;-77
2024/02/15 04:20:15;;;;;;;36.10;27.90;;;12.40;99.90;;;;;;5159236;27;20440;-77
2024/02/15 04:22:44;;;;;;;38.13;27.17;;;12.40;99.90;;;;;;5159034;27;20938;-77
2024/02/15 04:25:16;;;;;;;36.57;27.30;;;12.40;99.90;;;;;;5177710;27;20445;-78
2024/02/15 04:27:47;;;;;;;31.43;25.27;;;12.40;99.90;;;;;;5159219;27;20452;-77
2024/02/15 04:30:16;;;;;;;34.27;28.87;;;12.40;99.90;;;;;;5178322;27;20454;-77
2024/02/15 04:32:46;;;;;;;39.47;28.83;;;12.40;99.90;;;;;;5178567;27;20886;-77
2024/02/15 04:35:16;;;;;;;34.50;28.70;;;12.40;99.90;;;;;;5177939;27;20834;-77
2024/02/15 04:37:46;;;;;;;33.80;27.13;;;12.40;99.90;;;;;;5159167;27;20449;-77
2024/02/15 04:40:15;;;;;;;33.70;28.67;;;12.40;99.90;;;;;;5159770;27;20443;-78
2024/02/15 04:42:45;;;;;;;34.20;28.57;;;12.40;99.90;;;;;;5178405;27;20436;-78
2024/02/15 04:45:14;;;;;;;35.10;27.80;;;12.40;99.90;;;;;;5177972;27;20463;-77
2024/02/15 04:47:45;;;;;;;33.10;27.17;;;12.40;99.90;;;;;;5177799;27;20428;-78
2024/02/15 04:50:18;;;;;;;33.17;27.47;;;12.40;99.90;;;;;;5177636;27;20446;-77
2024/02/15 04:52:48;;;;;;;34.20;27.40;;;12.40;99.90;;;;;;5159209;27;20429;-77
2024/02/15 04:55:17;;;;;;;35.37;26.23;;;12.40;99.90;;;;;;5158584;27;20924;-77
2024/02/15 04:57:48;;;;;;;29.00;24.77;;;12.40;99.90;;;;;;5177020;27;20471;-77
2024/02/15 05:00:20;;;;;;;34.47;25.73;;;12.40;99.90;;;;;;5158728;27;20433;-77
2024/02/15 05:02:49;;;;;;;30.30;25.00;;;12.40;99.90;;;;;;5177287;27;20417;-76
2024/02/15 05:05:19;;;;;;;30.67;24.37;;;12.40;99.90;;;;;;5157371;27;20511;-77
2024/02/15 05:07:48;;;;;;;32.23;25.90;;;12.40;99.90;;;;;;5177837;27;20510;-77
2024/02/15 05:10:17;;;;;;;31.37;24.37;;;12.40;99.90;;;;;;5158049;27;20441;-77
2024/02/15 05:12:47;;;;;;;36.40;25.90;;;12.40;99.90;;;;;;5157932;27;20468;-77
2024/02/15 05:15:17;;;;;;;31.93;24.90;;;12.40;99.90;;;;;;5158368;27;20867;-77
2024/02/15 05:17:47;;;;;;;30.33;25.27;;;12.40;99.90;;;;;;5158175;27;20509;-78
2024/02/15 05:20:16;;;;;;;32.83;24.80;;;12.40;99.90;;;;;;5176668;27;20523;-77
2024/02/15 05:22:46;;;;;;;32.83;24.23;;;12.30;99.90;;;;;;5157710;27;20955;-77
2024/02/15 05:25:22;;;;;;;36.20;25.40;;;12.30;99.90;;;;;;5157997;27;20822;-77
2024/02/15 05:27:54;;;;;;;29.63;23.93;;;12.30;99.90;;;;;;5176331;27;20444;-77
2024/02/15 05:30:24;;;;;;;35.63;24.70;;;12.30;99.90;;;;;;5157831;27;20456;-77
2024/02/15 05:32:53;;;;;;;32.53;23.90;;;12.30;99.90;;;;;;5158071;27;20523;-77
2024/02/15 05:35:23;;;;;;;36.17;24.27;;;12.30;99.90;;;;;;5177304;27;20503;-77
2024/02/15 05:37:53;;;;;;;35.50;25.40;;;12.30;99.90;;;;;;5176482;27;20799;-77
2024/02/15 05:40:22;;;;;;;34.70;25.33;;;12.30;99.90;;;;;;5176879;27;20599;-77
2024/02/15 05:42:56;;;;;;;35.63;25.67;;;12.30;99.90;;;;;;5177465;27;20462;-78
2024/02/15 05:45:35;;;;;;;31.17;23.40;;;12.30;99.90;;;;;;5176725;27;20450;-77
2024/02/15 05:48:08;;;;;;;34.97;25.67;;;12.30;99.90;;;;;;5158071;27;20428;-77
2024/02/15 05:50:37;;;;;;;38.97;26.20;;;12.30;99.90;;;;;;5157944;27;20917;-77
2024/02/15 05:53:07;;;;;;;30.90;23.37;;;12.30;99.90;;;;;;5158013;27;20439;-77
2024/02/15 05:55:37;;;;;;;32.67;24.70;;;12.30;99.90;;;;;;5158038;27;20879;-77
2024/02/15 05:58:08;;;;;;;31.17;24.20;;;12.30;99.90;;;;;;5157605;27;20452;-77
2024/02/15 06:00:38;;;;;;;28.77;22.10;;;12.30;99.90;;;;;;5177005;27;20416;-77
2024/02/15 06:03:09;;;;;;;35.80;24.53;;;12.30;99.90;;;;;;5157515;27;20441;-77
2024/02/15 06:05:37;;;;;;;34.03;24.83;;;12.30;99.90;;;;;;5157286;27;20461;-78
2024/02/15 06:08:08;;;;;;;34.53;24.07;;;12.30;99.90;;;;;;5157276;27;20815;-77
2024/02/15 06:10:36;;;;;;;37.33;26.43;;;12.30;99.90;;;;;;5157593;27;20441;-77
2024/02/15 06:13:05;;;;;;;35.60;26.13;;;12.30;99.90;;;;;;5157946;27;20937;-77
2024/02/15 06:15:33;;;;;;;35.83;25.07;;;12.30;99.90;;;;;;5176390;27;20520;-77
2024/02/15 06:18:03;;;;;;;40.00;26.60;;;12.30;99.90;;;;;;5159109;27;20535;-77
2024/02/15 06:20:35;;;;;;;35.93;24.67;;;12.30;99.90;;;;;;5182236;27;20453;-78
2024/02/15 06:23:04;;;;;;;33.77;24.40;;;12.30;99.90;;;;;;5165357;27;20429;-77
2024/02/15 06:25:34;;;;;;;33.47;24.27;;;12.30;99.90;;;;;;5164908;27;20883;-77
2024/02/15 06:28:12;;;;;;;35.10;23.77;;;12.30;99.90;;;;;;5161408;27;20448;-76
2024/02/15 06:41:45;;;;;;;34.80;24.77;;;12.30;99.90;;;;;;5160720;27;20445;-77
2024/02/15 06:44:14;;;;;;;31.60;24.13;;;12.30;99.90;;;;;;5160750;27;20967;-77
2024/02/15 06:46:42;;;;;;;35.60;25.30;;;12.30;99.90;;;;;;5160493;27;21074;-77
2024/02/15 06:49:10;;;;;;;36.40;25.57;;;12.30;99.90;;;;;;5160603;27;20432;-77
2024/02/15 06:51:39;;;;;;;34.97;24.10;;;12.30;99.90;;;;;;5179536;27;20485;-76
2024/02/15 06:54:08;;;;;;;34.40;25.23;;;12.30;99.90;;;;;;5160427;27;20929;-77
2024/02/15 06:56:39;;;;;;;34.47;26.40;;;12.30;99.90;;;;;;5160600;27;20473;-78
2024/02/15 06:59:14;;;;;;;36.63;26.37;;;12.30;99.90;;;;;;5161488;27;20436;-77
2024/02/15 07:01:42;;;;;;;33.10;26.33;;;12.20;99.90;;;;;;5179532;27;20420;-77
2024/02/15 07:04:11;;;;;;;35.90;25.53;;;12.30;99.90;;;;;;5179252;27;20444;-77
2024/02/15 07:06:40;;;;;;;35.77;26.17;;;12.30;99.90;;;;;;5178960;27;20440;-77
2024/02/15 07:09:10;;;;;;;32.70;25.43;;;12.30;99.90;;;;;;5160440;27;20492;-76
2024/02/15 07:11:39;;;;;;;39.23;28.40;;;12.30;99.90;;;;;;5178905;27;20489;-77
2024/02/15 07:14:09;;;;;;;35.17;26.20;;;12.30;99.90;;;;;;5160253;27;20452;-77
2024/02/15 07:16:38;;;;;;;34.13;28.17;;;12.30;99.90;;;;;;5160201;27;20503;-77
2024/02/15 07:19:09;;;;;;;36.90;27.37;;;12.30;99.90;;;;;;5178765;27;20438;-77
2024/02/15 07:21:38;;;;;;;36.33;26.97;;;12.30;99.90;;;;;;5160039;27;20440;-77
2024/02/15 07:24:07;;;;;;;35.03;26.70;;;12.30;99.90;;;;;;5178889;27;20429;-77
2024/02/15 07:26:36;;;;;;;37.90;27.77;;;12.30;99.90;;;;;;5178459;27;20452;-77
2024/02/15 07:29:05;;;;;;;35.47;27.27;;;12.30;99.90;;;;;;5159264;27;20527;-77
2024/02/15 07:31:35;;;;;;;36.60;29.10;;;12.30;99.90;;;;;;5179014;27;20917;-77
2024/02/15 07:34:04;;;;;;;36.00;28.70;;;12.30;99.90;;;;;;5179095;27;20429;-77
2024/02/15 07:36:33;;;;;;;35.50;30.03;;;12.30;99.90;;;;;;5159757;27;20576;-77
2024/02/15 07:39:03;;;;;;;35.27;28.60;;;12.30;99.90;;;;;;5181245;27;20868;-78
2024/02/15 07:41:32;;;;;;;37.80;30.30;;;12.30;99.90;;;;;;5160858;27;20879;-76
2024/02/15 07:44:02;;;;;;;39.17;28.97;;;12.30;99.90;;;;;;5160885;27;20436;-78
2024/02/15 07:46:30;;;;;;;36.90;31.37;;;12.30;99.90;;;;;;5161638;27;20456;-78
2024/02/15 07:49:00;;;;;;;36.97;29.67;;;12.30;99.90;;;;;;5161070;27;21013;-78
2024/02/15 07:51:28;;;;;;;38.07;29.60;;;12.30;99.90;;;;;;5162130;27;20508;-77
2024/02/15 07:53:57;;;;;;;49.50;31.20;;;12.30;99.90;;;;;;5161586;27;20462;-78
2024/02/15 07:56:25;;;;;;;42.47;33.17;;;12.30;99.90;;;;;;5160517;27;20472;-76
2024/02/15 07:58:54;;;;;;;37.50;30.37;;;12.30;99.90;;;;;;5159055;27;20544;-76
2024/02/15 08:01:22;;;;;;;37.57;30.80;;;12.40;99.90;;;;;;5177651;27;20918;-77
2024/02/15 08:03:53;;;;;;;38.20;30.80;;;12.40;99.90;;;;;;5177516;27;20898;-77
2024/02/15 08:06:27;;;;;;;36.00;29.70;;;12.40;99.90;;;;;;5177552;27;20463;-77
2024/02/15 08:08:57;;;;;;;41.90;32.50;;;12.40;99.90;;;;;;5158822;27;20437;-76
2024/02/15 08:11:26;;;;;;;40.80;32.70;;;12.40;99.90;;;;;;5158829;27;20805;-76
2024/02/15 08:13:58;;;;;;;35.70;30.53;;;12.40;99.90;;;;;;5159295;27;20484;-77
2024/02/15 08:16:28;;;;;;;37.97;30.67;;;12.40;99.90;;;;;;5159388;27;20853;-77
2024/02/15 08:18:56;;;;;;;37.90;31.07;;;12.40;99.90;;;;;;5159481;27;20439;-77
2024/02/15 08:21:32;;;;;;;39.20;31.40;;;12.40;99.90;;;;;;5159125;27;20532;-77
2024/02/15 08:24:05;;;;;;;38.13;30.50;;;12.50;99.90;;;;;;5159333;27;20436;-77
2024/02/15 08:26:35;;;;;;;36.80;31.80;;;12.50;99.90;;;;;;5158808;27;20469;-77
2024/02/15 08:29:04;;;;;;;39.23;30.50;;;12.50;99.90;;;;;;5159170;27;20439;-77
2024/02/15 08:31:32;;;;;;;42.83;32.17;;;12.50;99.90;;;;;;5178292;27;20455;-77
2024/02/15 08:34:00;;;;;;;33.37;29.77;;;12.50;99.90;;;;;;5159967;27;20468;-77
2024/02/15 08:36:31;;;;;;;41.00;32.07;;;12.50;99.90;;;;;;5160525;27;20464;-77
2024/02/15 08:39:01;;;;;;;36.80;30.90;;;12.50;99.90;;;;;;5163238;27;20836;-78
2024/02/15 08:41:29;;;;;;;37.50;32.50;;;12.50;99.90;;;;;;5163722;27;20448;-77
2024/02/15 08:43:58;;;;;;;35.80;31.57;;;12.60;99.90;;;;;;5182357;27;20440;-77
2024/02/15 08:46:27;;;;;;;39.20;30.30;;;12.60;99.90;;;;;;5160841;27;20465;-77
2024/02/15 08:48:55;;;;;;;38.60;30.33;;;12.60;99.90;;;;;;5158515;27;20548;-77
2024/02/15 08:51:24;;;;;;;38.60;30.80;;;12.60;99.90;;;;;;5159412;27;20795;-78
2024/02/15 08:53:54;;;;;;;37.10;30.30;;;12.60;99.90;;;;;;5158439;27;20448;-77
2024/02/15 08:56:26;;;;;;;44.83;31.10;;;12.60;99.90;;;;;;5160116;27;20482;-78
2024/02/15 08:58:54;;;;;;;39.00;32.53;;;12.60;99.90;;;;;;5162250;27;20559;-78
2024/02/15 09:01:22;;;;;;;38.93;32.23;;;12.60;99.90;;;;;;5163225;27;20441;-78
2024/02/15 09:03:50;;;;;;;40.27;33.20;;;12.70;99.90;;;;;;5162119;27;20444;-78
2024/02/15 09:06:19;;;;;;;40.93;33.40;;;12.70;99.90;;;;;;5160593;27;20872;-78
2024/02/15 09:08:47;;;;;;;41.23;34.63;;;12.70;99.90;;;;;;5160142;27;20475;-78
2024/02/15 09:11:17;;;;;;;41.23;34.93;;;12.70;99.90;;;;;;5180329;27;20484;-77
2024/02/15 09:13:46;;;;;;;43.97;36.63;;;12.70;99.90;;;;;;5159632;27;20440;-77
2024/02/15 09:16:14;;;;;;;41.40;33.90;;;12.70;99.90;;;;;;5176686;27;20540;-78
2024/02/15 09:18:45;;;;;;;43.37;34.80;;;12.80;99.90;;;;;;5157909;27;20908;-77
2024/02/15 09:21:14;;;;;;;39.20;34.33;;;12.80;99.90;;;;;;5158318;27;20428;-77
2024/02/15 09:23:43;;;;;;;48.13;38.00;;;12.80;99.90;;;;;;5158389;27;20819;-77
2024/02/15 09:26:11;;;;;;;43.77;37.17;;;12.80;99.90;;;;;;5157975;27;20475;-77
2024/02/15 09:28:42;;;;;;;50.90;36.97;;;12.80;99.90;;;;;;5158088;27;20856;-77
2024/02/15 09:31:13;;;;;;;50.73;39.20;;;12.80;99.90;;;;;;5158803;27;20436;-77
2024/02/15 09:33:42;;;;;;;43.97;38.00;;;12.80;99.90;;;;;;5158363;27;20441;-77
2024/02/15 09:36:12;;;;;;;49.60;39.17;;;12.80;99.90;;;;;;5158611;27;20502;-77
2024/02/15 09:38:40;;;;;;;47.27;36.50;;;12.80;99.90;;;;;;5159072;27;20459;-77
2024/02/15 09:41:09;;;;;;;48.90;38.83;;;12.80;99.90;;;;;;5177124;27;20425;-77
2024/02/15 09:43:37;;;;;;;47.50;36.50;;;12.80;99.90;;;;;;5158415;27;20873;-77
2024/02/15 09:46:07;;;;;;;46.73;37.33;;;12.80;99.90;;;;;;5158196;27;20902;-78
2024/02/15 09:48:36;;;;;;;48.50;37.90;;;12.80;99.90;;;;;;5158464;27;20441;-78
2024/02/15 09:51:05;;;;;;;52.07;39.50;;;12.90;99.90;;;;;;5177076;27;20547;-77
2024/02/15 09:53:34;;;;;;;47.47;38.33;;;12.80;99.90;;;;;;5162771;27;20445;-77
2024/02/15 09:56:06;;;;;;;46.40;36.40;;;12.80;99.90;;;;;;5181304;27;20448;-77
2024/02/15 09:58:35;;;;;;;44.40;36.30;;;12.90;99.90;;;;;;5180694;27;20455;-77
2024/02/15 10:01:09;;;;;;;48.27;36.70;;;12.90;99.90;;;;;;5161292;27;20436;-77
2024/02/15 10:03:40;;;;;;;49.00;36.60;;;12.80;99.90;;;;;;5162204;27;20998;-76
2024/02/15 10:06:09;;;;;;;46.40;38.20;;;12.80;99.90;;;;;;5162128;27;20498;-76
2024/02/15 10:08:39;;;;;;;49.60;36.70;;;12.80;99.90;;;;;;5162704;27;20516;-78
2024/02/15 10:11:08;;;;;;;45.40;37.00;;;12.80;99.90;;;;;;5181517;27;20481;-76
2024/02/15 10:13:39;;;;;;;49.77;38.47;;;12.80;99.90;;;;;;5161024;27;20458;-77
2024/02/15 10:16:18;;;;;;;47.80;38.00;;;12.80;99.90;;;;;;5181185;27;20460;-77
2024/02/15 10:18:46;;;;;;;46.30;37.20;;;12.80;99.90;;;;;;5160868;27;20543;-76
2024/02/15 10:21:26;;;;;;;42.77;35.73;;;12.90;99.90;;;;;;5161016;27;20976;-75
2024/02/15 10:24:06;;;;;;;45.40;37.40;;;12.90;99.90;;;;;;5180749;27;20432;-76
2024/02/15 10:26:36;;;;;;;45.40;37.03;;;12.90;99.90;;;;;;5160620;27;20487;-76
2024/02/15 10:29:10;;;;;;;44.40;35.20;;;12.90;99.90;;;;;;5161229;27;20451;-76
2024/02/15 10:31:42;;;;;;;45.10;36.00;;;12.90;99.90;;;;;;5162266;27;20538;-76
2024/02/15 10:34:14;;;;;;;41.10;33.70;;;12.90;99.90;;;;;;5160855;27;20535;-76
2024/02/15 10:36:43;;;;;;;39.13;34.57;;;12.90;99.90;;;;;;5161877;27;20511;-77
2024/02/15 10:39:16;;;;;;;44.53;35.50;;;12.90;99.90;;;;;;5161577;27;20460;-76
2024/02/15 10:41:46;;;;;;;37.57;33.47;;;12.90;99.90;;;;;;5161236;27;20436;-77
2024/02/15 10:44:19;;;;;;;39.20;33.80;;;12.90;99.90;;;;;;5161810;27;20504;-77
2024/02/15 10:46:53;;;;;;;40.37;33.40;;;12.90;99.90;;;;;;5161350;27;20456;-76
2024/02/15 10:49:22;;;;;;;39.03;33.27;;;12.90;99.90;;;;;;5180718;27;20409;-77
2024/02/15 10:51:58;;;;;;;39.00;34.70;;;12.90;99.90;;;;;;5161771;27;20441;-77
2024/02/15 10:54:47;;;;;;;36.97;33.00;;;12.90;99.90;;;;;;5182413;27;20416;-77
2024/02/15 10:57:22;;;;;;;38.30;33.80;;;13.00;99.90;;;;;;5162229;27;20437;-78
2024/02/15 10:59:57;;;;;;;36.93;32.63;;;12.90;99.90;;;;;;5162387;27;20460;-77
2024/02/15 11:02:30;;;;;;;38.67;34.07;;;12.90;99.90;;;;;;5180121;27;20416;-77
2024/02/15 11:05:08;;;;;;;38.03;34.00;;;13.00;99.90;;;;;;5159864;27;20460;-76
2024/02/15 11:07:37;;;;;;;38.63;34.53;;;12.90;99.90;;;;;;5180062;27;20417;-77
2024/02/15 11:10:08;;;;;;;36.17;32.70;;;12.90;99.90;;;;;;5179811;27;20433;-77
2024/02/15 11:12:37;;;;;;;39.77;33.10;;;13.00;99.90;;;;;;5160682;27;20438;-77
2024/02/15 11:15:08;;;;;;;37.53;33.13;;;13.00;99.90;;;;;;5160703;27;20479;-77
2024/02/15 11:17:54;;;;;;;41.73;35.20;;;12.90;99.90;;;;;;5179194;27;20436;-77
2024/02/15 11:20:52;;;;;;;39.43;34.07;;;12.90;99.90;;;;;;5179160;27;20511;-77
2024/02/15 11:23:28;;;;;;;36.67;32.80;;;12.90;99.90;;;;;;5179132;27;20440;-77
2024/02/15 11:26:00;;;;;;;36.70;32.70;;;12.90;99.90;;;;;;5160581;27;20464;-77
2024/02/15 11:28:40;;;;;;;36.47;32.70;;;13.00;99.90;;;;;;5162041;27;20472;-77
2024/02/15 11:31:32;;;;;;;39.13;34.37;;;13.00;99.90;;;;;;5163949;27;20520;-78
2024/02/15 11:34:37;;;;;;;37.90;33.90;;;12.90;99.90;;;;;;5160714;27;20445;-77
2024/02/15 11:37:07;;;;;;;37.10;32.80;;;12.90;99.90;;;;;;5178798;27;20422;-77
2024/02/15 11:39:43;;;;;;;35.47;31.67;;;13.00;99.90;;;;;;5159995;27;20517;-77
2024/02/15 11:42:29;;;;;;;38.63;34.73;;;13.00;99.90;;;;;;5159987;27;20470;-77
2024/02/15 11:45:07;;;;;;;33.90;30.60;;;13.00;99.90;;;;;;5178562;27;20799;-77
2024/02/15 11:47:39;;;;;;;38.00;34.00;;;13.00;99.90;;;;;;5159842;27;20440;-77
2024/02/15 11:50:12;;;;;;;36.17;32.30;;;13.00;99.90;;;;;;5159371;27;20437;-77
2024/02/15 11:52:42;;;;;;;36.73;32.67;;;13.00;99.90;;;;;;5178495;27;20413;-77
2024/02/15 11:55:12;;;;;;;35.23;31.53;;;13.00;99.90;;;;;;5159625;27;20464;-77
2024/02/15 11:57:50;;;;;;;35.63;32.23;;;13.00;99.90;;;;;;5178663;27;20767;-77
2024/02/15 12:19:56;;;;;;;33.70;30.60;;;13.10;99.90;;;;;;5179336;27;20807;-78
2024/02/15 12:22:28;;;;;;;31.17;28.17;;;13.10;99.90;;;;;;5159956;27;20437;-78
2024/02/15 12:24:59;;;;;;;32.40;29.33;;;13.10;99.90;;;;;;5160268;27;20497;-77
2024/02/15 12:27:28;;;;;;;30.67;27.83;;;13.20;99.90;;;;;;5160093;27;20477;-77
2024/02/15 12:29:58;;;;;;;31.67;28.60;;;13.20;99.90;;;;;;5177881;27;20424;-77
2024/02/15 12:32:27;;;;;;;29.50;26.80;;;13.20;99.90;;;;;;5178499;27;20432;-78
2024/02/15 12:35:15;;;;;;;31.03;27.90;;;13.20;99.90;;;;;;5159464;27;20467;-76
2024/02/15 12:37:44;;;;;;;32.57;27.73;;;13.20;99.90;;;;;;5159221;27;20839;-77
2024/02/15 12:40:16;;;;;;;31.10;28.10;;;13.20;99.90;;;;;;5158261;27;20968;-76
2024/02/15 12:42:46;;;;;;;28.97;26.17;;;13.20;99.90;;;;;;5158533;27;20437;-78
2024/02/15 12:45:20;;;;;;;28.83;26.00;;;13.20;99.90;;;;;;5158822;27;20559;-78
2024/02/15 12:47:51;;;;;;;29.40;26.70;;;13.20;99.90;;;;;;5159347;27;20435;-78
2024/02/15 12:50:21;;;;;;;29.30;26.77;;;13.20;99.90;;;;;;5178678;27;20421;-78
2024/02/15 12:52:53;;;;;;;28.97;26.40;;;13.20;99.90;;;;;;5159143;27;20443;-78
2024/02/15 12:55:25;;;;;;;28.87;26.40;;;13.20;99.90;;;;;;5159171;27;20985;-77
2024/02/15 12:57:55;;;;;;;26.73;24.37;;;13.30;99.90;;;;;;5159107;27;20917;-77
2024/02/15 13:00:28;;;;;;;26.40;24.27;;;13.20;99.90;;;;;;5158087;27;20799;-77
2024/02/15 13:02:58;;;;;;;25.70;23.60;;;13.30;99.90;;;;;;5158245;27;20446;-75
2024/02/15 13:05:28;;;;;;;26.97;24.57;;;13.30;99.90;;;;;;5158362;27;20464;-77
2024/02/15 13:07:57;;;;;;;26.90;24.30;;;13.20;99.90;;;;;;5177453;27;20429;-77
2024/02/15 13:10:28;;;;;;;25.87;23.57;;;13.30;99.90;;;;;;5160529;27;20439;-76
2024/02/15 13:12:57;;;;;;;27.40;25.10;;;13.20;99.90;;;;;;5179463;27;20412;-76
2024/02/15 13:15:32;;;;;;;25.40;23.10;;;13.30;99.90;;;;;;5160213;27;20460;-77